sensor_id;sensor_type;location;lat;lon;timestamp;P1;durP1;ratioP1;P2;durP2;ratioP2
45049;SDS011;61798;48.048;-1.928;2023-04-08T00:00:49;11.95;;;5.70;;
45049;SDS011;61798;48.048;-1.928;2023-04-08T00:02:55;12.27;;;5.70;;
45049;SDS011;61798;48.048;-1.928;2023-04-08T00:05:01;12.25;;;5.10;;
45049;SDS011;61798;48.048;-1.928;2023-04-08T00:07:07;13.25;;;5.35;;
45049;SDS011;61798;48.048;-1.928;2023-04-08T00:09:13;8.93;;;5.40;;
45049;SDS011;61798;48.048;-1.928;2023-04-08T00:11:19;17.80;;;5.82;;
45049;SDS011;61798;48.048;-1.928;2023-04-08T00:13:25;13.57;;;4.97;;
45049;SDS011;61798;48.048;-1.928;2023-04-08T00:15:31;14.43;;;4.80;;
45049;SDS011;61798;48.048;-1.928;2023-04-08T00:17:38;14.38;;;5.03;;
45049;SDS011;61798;48.048;-1.928;2023-04-08T00:19:44;15.75;;;5.13;;
45049;SDS011;61798;48.048;-1.928;2023-04-08T00:21:50;8.90;;;5.22;;
45049;SDS011;61798;48.048;-1.928;2023-04-08T00:23:57;11.00;;;4.80;;
45049;SDS011;61798;48.048;-1.928;2023-04-08T00:26:03;11.18;;;5.22;;
45049;SDS011;61798;48.048;-1.928;2023-04-08T00:28:09;14.68;;;6.15;;
45049;SDS011;61798;48.048;-1.928;2023-04-08T00:30:15;15.43;;;7.13;;
45049;SDS011;61798;48.048;-1.928;2023-04-08T00:32:21;15.50;;;6.32;;
45049;SDS011;61798;48.048;-1.928;2023-04-08T00:34:27;14.43;;;6.32;;
45049;SDS011;61798;48.048;-1.928;2023-04-08T00:36:33;15.15;;;7.10;;
45049;SDS011;61798;48.048;-1.928;2023-04-08T00:38:40;20.35;;;8.63;;
45049;SDS011;61798;48.048;-1.928;2023-04-08T00:40:46;15.05;;;7.68;;
45049;SDS011;61798;48.048;-1.928;2023-04-08T00:42:52;16.58;;;7.85;;
45049;SDS011;61798;48.048;-1.928;2023-04-08T00:44:58;15.48;;;7.25;;
45049;SDS011;61798;48.048;-1.928;2023-04-08T00:47:04;15.32;;;8.00;;
45049;SDS011;61798;48.048;-1.928;2023-04-08T00:49:10;11.50;;;6.88;;
45049;SDS011;61798;48.048;-1.928;2023-04-08T00:51:17;14.18;;;7.13;;
45049;SDS011;61798;48.048;-1.928;2023-04-08T00:53:23;11.85;;;7.35;;
45049;SDS011;61798;48.048;-1.928;2023-04-08T00:55:30;18.52;;;7.88;;
45049;SDS011;61798;48.048;-1.928;2023-04-08T00:57:36;14.63;;;7.85;;
45049;SDS011;61798;48.048;-1.928;2023-04-08T00:59:42;13.27;;;8.40;;
45049;SDS011;61798;48.048;-1.928;2023-04-08T01:01:56;16.50;;;8.60;;
45049;SDS011;61798;48.048;-1.928;2023-04-08T01:09:04;14.82;;;6.55;;
45049;SDS011;61798;48.048;-1.928;2023-04-08T01:11:11;16.50;;;6.55;;
45049;SDS011;61798;48.048;-1.928;2023-04-08T01:13:19;16.90;;;7.10;;
45049;SDS011;61798;48.048;-1.928;2023-04-08T01:15:28;11.38;;;6.13;;
45049;SDS011;61798;48.048;-1.928;2023-04-08T01:17:36;14.73;;;5.95;;
45049;SDS011;61798;48.048;-1.928;2023-04-08T01:19:42;13.73;;;6.68;;
45049;SDS011;61798;48.048;-1.928;2023-04-08T01:21:50;13.55;;;5.55;;
45049;SDS011;61798;48.048;-1.928;2023-04-08T01:24:19;13.43;;;5.82;;
45049;SDS011;61798;48.048;-1.928;2023-04-08T01:26:31;7.97;;;5.18;;
45049;SDS011;61798;48.048;-1.928;2023-04-08T01:28:37;10.23;;;6.35;;
45049;SDS011;61798;48.048;-1.928;2023-04-08T01:30:45;14.73;;;7.10;;
45049;SDS011;61798;48.048;-1.928;2023-04-08T01:32:53;18.45;;;8.45;;
45049;SDS011;61798;48.048;-1.928;2023-04-08T01:35:00;20.67;;;9.68;;
45049;SDS011;61798;48.048;-1.928;2023-04-08T01:37:07;16.90;;;9.40;;
45049;SDS011;61798;48.048;-1.928;2023-04-08T01:39:14;19.77;;;10.32;;
45049;SDS011;61798;48.048;-1.928;2023-04-08T01:41:22;26.95;;;11.98;;
45049;SDS011;61798;48.048;-1.928;2023-04-08T01:43:29;24.10;;;12.25;;
45049;SDS011;61798;48.048;-1.928;2023-04-08T01:45:36;21.17;;;10.27;;
45049;SDS011;61798;48.048;-1.928;2023-04-08T01:47:43;18.10;;;9.55;;
45049;SDS011;61798;48.048;-1.928;2023-04-08T01:49:51;15.52;;;9.25;;
45049;SDS011;61798;48.048;-1.928;2023-04-08T01:51:58;16.67;;;8.43;;
45049;SDS011;61798;48.048;-1.928;2023-04-08T01:54:06;19.98;;;9.50;;
45049;SDS011;61798;48.048;-1.928;2023-04-08T01:56:12;20.48;;;10.55;;
45049;SDS011;61798;48.048;-1.928;2023-04-08T01:58:20;19.88;;;9.98;;
45049;SDS011;61798;48.048;-1.928;2023-04-08T02:00:28;20.23;;;10.13;;
45049;SDS011;61798;48.048;-1.928;2023-04-08T02:02:36;24.45;;;10.80;;
45049;SDS011;61798;48.048;-1.928;2023-04-08T02:04:43;31.38;;;12.15;;
45049;SDS011;61798;48.048;-1.928;2023-04-08T02:06:49;27.50;;;12.63;;
45049;SDS011;61798;48.048;-1.928;2023-04-08T02:08:55;21.10;;;10.65;;
45049;SDS011;61798;48.048;-1.928;2023-04-08T02:11:02;25.55;;;10.77;;
45049;SDS011;61798;48.048;-1.928;2023-04-08T02:13:08;20.92;;;11.32;;
45049;SDS011;61798;48.048;-1.928;2023-04-08T02:15:14;25.48;;;11.02;;
45049;SDS011;61798;48.048;-1.928;2023-04-08T02:19:40;15.60;;;9.88;;
45049;SDS011;61798;48.048;-1.928;2023-04-08T02:21:54;25.40;;;11.38;;
45049;SDS011;61798;48.048;-1.928;2023-04-08T02:24:04;21.58;;;10.38;;
45049;SDS011;61798;48.048;-1.928;2023-04-08T02:26:12;25.33;;;10.45;;
45049;SDS011;61798;48.048;-1.928;2023-04-08T02:28:20;14.75;;;8.18;;
45049;SDS011;61798;48.048;-1.928;2023-04-08T02:30:27;15.13;;;8.13;;
45049;SDS011;61798;48.048;-1.928;2023-04-08T02:32:35;16.70;;;9.20;;
45049;SDS011;61798;48.048;-1.928;2023-04-08T02:34:42;17.40;;;8.27;;
45049;SDS011;61798;48.048;-1.928;2023-04-08T02:36:49;27.85;;;9.60;;
45049;SDS011;61798;48.048;-1.928;2023-04-08T02:38:56;15.23;;;8.73;;
45049;SDS011;61798;48.048;-1.928;2023-04-08T02:41:02;11.85;;;8.43;;
45049;SDS011;61798;48.048;-1.928;2023-04-08T02:43:08;12.93;;;8.45;;
45049;SDS011;61798;48.048;-1.928;2023-04-08T02:45:14;10.43;;;8.07;;
45049;SDS011;61798;48.048;-1.928;2023-04-08T02:47:20;13.50;;;8.00;;
45049;SDS011;61798;48.048;-1.928;2023-04-08T02:49:26;11.55;;;7.78;;
45049;SDS011;61798;48.048;-1.928;2023-04-08T02:51:32;19.27;;;7.88;;
45049;SDS011;61798;48.048;-1.928;2023-04-08T02:53:38;15.20;;;7.95;;
45049;SDS011;61798;48.048;-1.928;2023-04-08T02:55:44;12.60;;;8.10;;
45049;SDS011;61798;48.048;-1.928;2023-04-08T02:57:50;11.80;;;7.22;;
45049;SDS011;61798;48.048;-1.928;2023-04-08T02:59:56;14.25;;;7.97;;
45049;SDS011;61798;48.048;-1.928;2023-04-08T03:02:02;17.58;;;8.52;;
45049;SDS011;61798;48.048;-1.928;2023-04-08T03:04:08;15.65;;;9.10;;
45049;SDS011;61798;48.048;-1.928;2023-04-08T03:06:14;22.30;;;8.95;;
45049;SDS011;61798;48.048;-1.928;2023-04-08T03:08:21;15.98;;;9.25;;
45049;SDS011;61798;48.048;-1.928;2023-04-08T03:10:27;20.52;;;8.70;;
45049;SDS011;61798;48.048;-1.928;2023-04-08T03:12:33;12.93;;;8.18;;
45049;SDS011;61798;48.048;-1.928;2023-04-08T03:14:39;17.55;;;9.00;;
45049;SDS011;61798;48.048;-1.928;2023-04-08T03:16:45;20.23;;;10.23;;
45049;SDS011;61798;48.048;-1.928;2023-04-08T03:18:51;14.68;;;8.70;;
45049;SDS011;61798;48.048;-1.928;2023-04-08T03:20:57;14.90;;;9.55;;
45049;SDS011;61798;48.048;-1.928;2023-04-08T03:23:03;15.02;;;9.43;;
45049;SDS011;61798;48.048;-1.928;2023-04-08T03:25:09;11.68;;;8.13;;
45049;SDS011;61798;48.048;-1.928;2023-04-08T03:27:16;14.60;;;7.57;;
45049;SDS011;61798;48.048;-1.928;2023-04-08T03:29:22;10.27;;;7.93;;
45049;SDS011;61798;48.048;-1.928;2023-04-08T03:31:28;13.15;;;9.43;;
45049;SDS011;61798;48.048;-1.928;2023-04-08T03:33:34;14.25;;;10.38;;
45049;SDS011;61798;48.048;-1.928;2023-04-08T03:35:40;15.00;;;10.35;;
45049;SDS011;61798;48.048;-1.928;2023-04-08T03:37:46;15.55;;;10.10;;
45049;SDS011;61798;48.048;-1.928;2023-04-08T03:39:52;16.35;;;10.32;;
45049;SDS011;61798;48.048;-1.928;2023-04-08T03:41:59;17.48;;;9.18;;
45049;SDS011;61798;48.048;-1.928;2023-04-08T03:44:05;16.23;;;9.43;;
45049;SDS011;61798;48.048;-1.928;2023-04-08T03:46:11;14.93;;;9.43;;
45049;SDS011;61798;48.048;-1.928;2023-04-08T03:48:17;13.55;;;8.82;;
45049;SDS011;61798;48.048;-1.928;2023-04-08T03:50:23;12.82;;;9.07;;
45049;SDS011;61798;48.048;-1.928;2023-04-08T03:52:29;13.60;;;9.32;;
45049;SDS011;61798;48.048;-1.928;2023-04-08T03:54:35;14.23;;;9.20;;
45049;SDS011;61798;48.048;-1.928;2023-04-08T03:56:41;15.02;;;9.45;;
45049;SDS011;61798;48.048;-1.928;2023-04-08T03:58:47;13.07;;;9.25;;
45049;SDS011;61798;48.048;-1.928;2023-04-08T04:00:53;11.68;;;8.82;;
45049;SDS011;61798;48.048;-1.928;2023-04-08T04:02:59;13.00;;;9.30;;
45049;SDS011;61798;48.048;-1.928;2023-04-08T04:05:05;15.80;;;9.65;;
45049;SDS011;61798;48.048;-1.928;2023-04-08T04:07:12;13.50;;;8.75;;
45049;SDS011;61798;48.048;-1.928;2023-04-08T04:09:18;17.02;;;10.35;;
45049;SDS011;61798;48.048;-1.928;2023-04-08T04:11:24;13.60;;;8.88;;
45049;SDS011;61798;48.048;-1.928;2023-04-08T04:13:30;13.88;;;9.77;;
45049;SDS011;61798;48.048;-1.928;2023-04-08T04:15:37;12.30;;;8.90;;
45049;SDS011;61798;48.048;-1.928;2023-04-08T04:17:48;17.80;;;10.35;;
45049;SDS011;61798;48.048;-1.928;2023-04-08T04:19:55;19.55;;;10.18;;
45049;SDS011;61798;48.048;-1.928;2023-04-08T04:22:01;15.57;;;9.60;;
45049;SDS011;61798;48.048;-1.928;2023-04-08T04:24:07;13.27;;;10.35;;
45049;SDS011;61798;48.048;-1.928;2023-04-08T04:26:13;14.68;;;9.65;;
45049;SDS011;61798;48.048;-1.928;2023-04-08T04:28:19;11.80;;;7.90;;
45049;SDS011;61798;48.048;-1.928;2023-04-08T04:30:25;10.90;;;6.82;;
45049;SDS011;61798;48.048;-1.928;2023-04-08T04:32:31;12.45;;;7.15;;
45049;SDS011;61798;48.048;-1.928;2023-04-08T04:34:37;8.68;;;6.93;;
45049;SDS011;61798;48.048;-1.928;2023-04-08T04:36:43;12.23;;;7.60;;
45049;SDS011;61798;48.048;-1.928;2023-04-08T04:38:50;11.77;;;7.32;;
45049;SDS011;61798;48.048;-1.928;2023-04-08T04:40:56;20.90;;;8.30;;
45049;SDS011;61798;48.048;-1.928;2023-04-08T04:43:03;14.25;;;7.50;;
45049;SDS011;61798;48.048;-1.928;2023-04-08T04:45:10;14.95;;;7.70;;
45049;SDS011;61798;48.048;-1.928;2023-04-08T04:47:16;12.82;;;8.13;;
45049;SDS011;61798;48.048;-1.928;2023-04-08T04:49:23;10.95;;;7.88;;
45049;SDS011;61798;48.048;-1.928;2023-04-08T04:51:32;11.88;;;7.65;;
45049;SDS011;61798;48.048;-1.928;2023-04-08T04:53:38;18.50;;;10.57;;
45049;SDS011;61798;48.048;-1.928;2023-04-08T04:55:44;17.02;;;9.50;;
45049;SDS011;61798;48.048;-1.928;2023-04-08T04:57:50;15.85;;;9.60;;
45049;SDS011;61798;48.048;-1.928;2023-04-08T04:59:56;14.73;;;8.88;;
45049;SDS011;61798;48.048;-1.928;2023-04-08T05:02:02;14.88;;;8.93;;
45049;SDS011;61798;48.048;-1.928;2023-04-08T05:04:08;16.10;;;9.25;;
45049;SDS011;61798;48.048;-1.928;2023-04-08T05:06:14;14.82;;;8.65;;
45049;SDS011;61798;48.048;-1.928;2023-04-08T05:08:20;16.67;;;9.80;;
45049;SDS011;61798;48.048;-1.928;2023-04-08T05:10:27;19.85;;;10.82;;
45049;SDS011;61798;48.048;-1.928;2023-04-08T05:12:33;23.17;;;12.73;;
45049;SDS011;61798;48.048;-1.928;2023-04-08T05:14:39;22.70;;;12.80;;
45049;SDS011;61798;48.048;-1.928;2023-04-08T05:16:46;29.42;;;16.05;;
45049;SDS011;61798;48.048;-1.928;2023-04-08T05:18:52;25.33;;;16.15;;
45049;SDS011;61798;48.048;-1.928;2023-04-08T05:20:58;18.50;;;11.77;;
45049;SDS011;61798;48.048;-1.928;2023-04-08T05:23:04;16.83;;;11.27;;
45049;SDS011;61798;48.048;-1.928;2023-04-08T05:25:11;21.50;;;10.63;;
45049;SDS011;61798;48.048;-1.928;2023-04-08T05:27:17;19.75;;;10.80;;
45049;SDS011;61798;48.048;-1.928;2023-04-08T05:29:24;20.48;;;10.90;;
45049;SDS011;61798;48.048;-1.928;2023-04-08T05:31:30;19.83;;;10.93;;
45049;SDS011;61798;48.048;-1.928;2023-04-08T05:33:36;16.05;;;10.60;;
45049;SDS011;61798;48.048;-1.928;2023-04-08T05:35:42;13.82;;;9.63;;
45049;SDS011;61798;48.048;-1.928;2023-04-08T05:37:48;18.02;;;9.80;;
45049;SDS011;61798;48.048;-1.928;2023-04-08T05:39:54;17.80;;;11.50;;
45049;SDS011;61798;48.048;-1.928;2023-04-08T05:42:00;15.18;;;10.45;;
45049;SDS011;61798;48.048;-1.928;2023-04-08T05:44:06;23.75;;;11.45;;
45049;SDS011;61798;48.048;-1.928;2023-04-08T05:46:12;16.98;;;10.38;;
45049;SDS011;61798;48.048;-1.928;2023-04-08T05:48:18;16.38;;;10.07;;
45049;SDS011;61798;48.048;-1.928;2023-04-08T05:50:24;20.40;;;10.93;;
45049;SDS011;61798;48.048;-1.928;2023-04-08T05:52:30;20.75;;;11.85;;
45049;SDS011;61798;48.048;-1.928;2023-04-08T05:54:36;21.30;;;12.98;;
45049;SDS011;61798;48.048;-1.928;2023-04-08T05:56:42;19.73;;;11.15;;
45049;SDS011;61798;48.048;-1.928;2023-04-08T05:58:50;19.98;;;12.70;;
45049;SDS011;61798;48.048;-1.928;2023-04-08T06:00:56;19.20;;;12.52;;
45049;SDS011;61798;48.048;-1.928;2023-04-08T06:03:02;20.30;;;12.43;;
45049;SDS011;61798;48.048;-1.928;2023-04-08T06:05:08;18.42;;;12.48;;
45049;SDS011;61798;48.048;-1.928;2023-04-08T06:07:15;24.15;;;12.75;;
45049;SDS011;61798;48.048;-1.928;2023-04-08T06:09:20;19.08;;;11.82;;
45049;SDS011;61798;48.048;-1.928;2023-04-08T06:11:26;24.92;;;11.95;;
45049;SDS011;61798;48.048;-1.928;2023-04-08T06:13:34;17.55;;;11.30;;
45049;SDS011;61798;48.048;-1.928;2023-04-08T06:15:41;21.85;;;12.27;;
45049;SDS011;61798;48.048;-1.928;2023-04-08T06:17:49;15.98;;;10.65;;
45049;SDS011;61798;48.048;-1.928;2023-04-08T06:19:56;21.73;;;13.55;;
45049;SDS011;61798;48.048;-1.928;2023-04-08T06:22:03;26.40;;;15.98;;
45049;SDS011;61798;48.048;-1.928;2023-04-08T06:24:10;20.75;;;12.85;;
45049;SDS011;61798;48.048;-1.928;2023-04-08T06:26:17;17.63;;;12.05;;
45049;SDS011;61798;48.048;-1.928;2023-04-08T06:28:25;21.92;;;10.85;;
45049;SDS011;61798;48.048;-1.928;2023-04-08T06:30:32;21.80;;;12.02;;
45049;SDS011;61798;48.048;-1.928;2023-04-08T06:32:39;17.70;;;12.52;;
45049;SDS011;61798;48.048;-1.928;2023-04-08T06:34:47;20.90;;;12.20;;
45049;SDS011;61798;48.048;-1.928;2023-04-08T06:36:55;23.65;;;13.55;;
45049;SDS011;61798;48.048;-1.928;2023-04-08T06:39:01;20.27;;;12.75;;
45049;SDS011;61798;48.048;-1.928;2023-04-08T06:41:07;18.70;;;12.23;;
45049;SDS011;61798;48.048;-1.928;2023-04-08T06:43:13;22.13;;;13.50;;
45049;SDS011;61798;48.048;-1.928;2023-04-08T06:45:20;17.52;;;11.30;;
45049;SDS011;61798;48.048;-1.928;2023-04-08T06:47:27;15.80;;;10.43;;
45049;SDS011;61798;48.048;-1.928;2023-04-08T06:49:34;20.05;;;11.55;;
45049;SDS011;61798;48.048;-1.928;2023-04-08T06:51:42;15.75;;;10.93;;
45049;SDS011;61798;48.048;-1.928;2023-04-08T06:53:50;13.70;;;10.48;;
45049;SDS011;61798;48.048;-1.928;2023-04-08T06:55:57;12.35;;;9.60;;
45049;SDS011;61798;48.048;-1.928;2023-04-08T06:58:03;13.98;;;9.80;;
45049;SDS011;61798;48.048;-1.928;2023-04-08T07:00:10;17.15;;;10.13;;
45049;SDS011;61798;48.048;-1.928;2023-04-08T07:02:17;16.60;;;10.45;;
45049;SDS011;61798;48.048;-1.928;2023-04-08T07:04:24;18.35;;;10.27;;
45049;SDS011;61798;48.048;-1.928;2023-04-08T07:06:31;16.10;;;10.80;;
45049;SDS011;61798;48.048;-1.928;2023-04-08T07:08:39;16.27;;;9.93;;
45049;SDS011;61798;48.048;-1.928;2023-04-08T07:10:46;19.88;;;11.70;;
45049;SDS011;61798;48.048;-1.928;2023-04-08T07:12:54;37.53;;;11.77;;
45049;SDS011;61798;48.048;-1.928;2023-04-08T07:15:01;20.85;;;10.15;;
45049;SDS011;61798;48.048;-1.928;2023-04-08T07:17:09;15.10;;;10.77;;
45049;SDS011;61798;48.048;-1.928;2023-04-08T07:19:16;14.95;;;10.57;;
45049;SDS011;61798;48.048;-1.928;2023-04-08T07:21:25;21.15;;;11.43;;
45049;SDS011;61798;48.048;-1.928;2023-04-08T07:23:31;20.40;;;10.95;;
45049;SDS011;61798;48.048;-1.928;2023-04-08T07:25:38;27.02;;;13.55;;
45049;SDS011;61798;48.048;-1.928;2023-04-08T07:27:45;24.27;;;13.52;;
45049;SDS011;61798;48.048;-1.928;2023-04-08T07:29:52;22.30;;;11.80;;
45049;SDS011;61798;48.048;-1.928;2023-04-08T07:32:00;21.95;;;12.73;;
45049;SDS011;61798;48.048;-1.928;2023-04-08T07:34:07;21.77;;;12.82;;
45049;SDS011;61798;48.048;-1.928;2023-04-08T07:36:14;19.15;;;12.38;;
45049;SDS011;61798;48.048;-1.928;2023-04-08T07:38:25;17.50;;;11.95;;
45049;SDS011;61798;48.048;-1.928;2023-04-08T07:40:32;20.85;;;12.18;;
45049;SDS011;61798;48.048;-1.928;2023-04-08T07:42:38;16.80;;;12.52;;
45049;SDS011;61798;48.048;-1.928;2023-04-08T07:44:44;25.10;;;13.88;;
45049;SDS011;61798;48.048;-1.928;2023-04-08T07:46:50;24.02;;;14.52;;
45049;SDS011;61798;48.048;-1.928;2023-04-08T07:48:56;20.75;;;14.18;;
45049;SDS011;61798;48.048;-1.928;2023-04-08T07:51:06;20.58;;;13.35;;
45049;SDS011;61798;48.048;-1.928;2023-04-08T07:53:13;24.95;;;14.48;;
45049;SDS011;61798;48.048;-1.928;2023-04-08T07:55:20;22.85;;;13.70;;
45049;SDS011;61798;48.048;-1.928;2023-04-08T07:57:26;20.70;;;12.82;;
45049;SDS011;61798;48.048;-1.928;2023-04-08T07:59:33;23.52;;;13.38;;
45049;SDS011;61798;48.048;-1.928;2023-04-08T08:01:44;22.48;;;13.07;;
45049;SDS011;61798;48.048;-1.928;2023-04-08T08:03:53;25.27;;;14.02;;
45049;SDS011;61798;48.048;-1.928;2023-04-08T08:06:00;19.52;;;12.13;;
45049;SDS011;61798;48.048;-1.928;2023-04-08T08:08:07;22.90;;;13.93;;
45049;SDS011;61798;48.048;-1.928;2023-04-08T08:10:17;20.17;;;12.13;;
45049;SDS011;61798;48.048;-1.928;2023-04-08T08:12:23;20.52;;;13.32;;
45049;SDS011;61798;48.048;-1.928;2023-04-08T08:14:30;20.40;;;12.70;;
45049;SDS011;61798;48.048;-1.928;2023-04-08T08:16:37;22.42;;;14.18;;
45049;SDS011;61798;48.048;-1.928;2023-04-08T08:18:45;18.35;;;12.32;;
45049;SDS011;61798;48.048;-1.928;2023-04-08T08:20:52;18.50;;;12.85;;
45049;SDS011;61798;48.048;-1.928;2023-04-08T08:23:01;16.80;;;11.93;;
45049;SDS011;61798;48.048;-1.928;2023-04-08T08:25:09;19.48;;;12.57;;
45049;SDS011;61798;48.048;-1.928;2023-04-08T08:27:16;21.13;;;12.13;;
45049;SDS011;61798;48.048;-1.928;2023-04-08T08:29:23;17.77;;;12.20;;
45049;SDS011;61798;48.048;-1.928;2023-04-08T08:31:30;18.30;;;12.18;;
45049;SDS011;61798;48.048;-1.928;2023-04-08T08:33:37;20.15;;;11.95;;
45049;SDS011;61798;48.048;-1.928;2023-04-08T08:35:45;19.48;;;12.38;;
45049;SDS011;61798;48.048;-1.928;2023-04-08T08:37:51;17.20;;;11.30;;
45049;SDS011;61798;48.048;-1.928;2023-04-08T08:39:58;16.67;;;10.82;;
45049;SDS011;61798;48.048;-1.928;2023-04-08T08:42:05;19.15;;;12.35;;
45049;SDS011;61798;48.048;-1.928;2023-04-08T08:44:14;16.65;;;11.57;;
45049;SDS011;61798;48.048;-1.928;2023-04-08T08:46:20;19.10;;;11.02;;
45049;SDS011;61798;48.048;-1.928;2023-04-08T08:48:26;17.55;;;12.80;;
45049;SDS011;61798;48.048;-1.928;2023-04-08T08:50:34;17.45;;;11.63;;
45049;SDS011;61798;48.048;-1.928;2023-04-08T08:52:50;17.13;;;13.00;;
45049;SDS011;61798;48.048;-1.928;2023-04-08T08:54:58;16.33;;;11.77;;
45049;SDS011;61798;48.048;-1.928;2023-04-08T08:57:16;21.15;;;12.18;;
45049;SDS011;61798;48.048;-1.928;2023-04-08T08:59:26;18.00;;;11.77;;
45049;SDS011;61798;48.048;-1.928;2023-04-08T09:01:36;16.42;;;11.70;;
45049;SDS011;61798;48.048;-1.928;2023-04-08T09:03:44;17.63;;;11.55;;
45049;SDS011;61798;48.048;-1.928;2023-04-08T09:05:56;18.33;;;12.77;;
45049;SDS011;61798;48.048;-1.928;2023-04-08T09:08:13;22.33;;;12.60;;
45049;SDS011;61798;48.048;-1.928;2023-04-08T09:10:34;17.63;;;11.70;;
45049;SDS011;61798;48.048;-1.928;2023-04-08T09:12:54;22.50;;;11.70;;
45049;SDS011;61798;48.048;-1.928;2023-04-08T09:15:07;16.85;;;11.13;;
45049;SDS011;61798;48.048;-1.928;2023-04-08T09:17:30;18.15;;;11.38;;
45049;SDS011;61798;48.048;-1.928;2023-04-08T09:20:03;18.48;;;10.88;;
45049;SDS011;61798;48.048;-1.928;2023-04-08T09:22:17;16.40;;;11.45;;
45049;SDS011;61798;48.048;-1.928;2023-04-08T09:24:28;16.65;;;11.82;;
45049;SDS011;61798;48.048;-1.928;2023-04-08T09:26:38;18.50;;;11.52;;
45049;SDS011;61798;48.048;-1.928;2023-04-08T09:33:33;21.45;;;11.95;;
45049;SDS011;61798;48.048;-1.928;2023-04-08T09:35:40;20.42;;;12.50;;
45049;SDS011;61798;48.048;-1.928;2023-04-08T09:37:48;20.05;;;11.40;;
45049;SDS011;61798;48.048;-1.928;2023-04-08T09:39:56;17.20;;;10.55;;
45049;SDS011;61798;48.048;-1.928;2023-04-08T09:42:03;16.67;;;11.02;;
45049;SDS011;61798;48.048;-1.928;2023-04-08T09:44:13;20.58;;;10.63;;
45049;SDS011;61798;48.048;-1.928;2023-04-08T09:46:30;16.13;;;9.93;;
45049;SDS011;61798;48.048;-1.928;2023-04-08T09:49:04;17.02;;;10.57;;
45049;SDS011;61798;48.048;-1.928;2023-04-08T09:51:14;14.63;;;10.40;;
45049;SDS011;61798;48.048;-1.928;2023-04-08T09:53:23;15.10;;;9.18;;
45049;SDS011;61798;48.048;-1.928;2023-04-08T09:55:41;14.80;;;9.63;;
45049;SDS011;61798;48.048;-1.928;2023-04-08T09:57:54;15.70;;;10.65;;
45049;SDS011;61798;48.048;-1.928;2023-04-08T10:00:11;18.42;;;10.48;;
45049;SDS011;61798;48.048;-1.928;2023-04-08T10:02:22;17.80;;;11.00;;
45049;SDS011;61798;48.048;-1.928;2023-04-08T10:04:34;15.93;;;10.65;;
45049;SDS011;61798;48.048;-1.928;2023-04-08T10:06:44;16.80;;;11.45;;
45049;SDS011;61798;48.048;-1.928;2023-04-08T10:09:00;20.05;;;12.60;;
45049;SDS011;61798;48.048;-1.928;2023-04-08T10:11:10;18.13;;;12.68;;
45049;SDS011;61798;48.048;-1.928;2023-04-08T10:13:19;21.27;;;11.90;;
45049;SDS011;61798;48.048;-1.928;2023-04-08T10:15:32;18.38;;;11.88;;
45049;SDS011;61798;48.048;-1.928;2023-04-08T10:19:47;20.67;;;12.45;;
45049;SDS011;61798;48.048;-1.928;2023-04-08T10:21:54;17.10;;;11.57;;
45049;SDS011;61798;48.048;-1.928;2023-04-08T10:24:04;18.80;;;12.32;;
45049;SDS011;61798;48.048;-1.928;2023-04-08T10:26:28;16.27;;;11.68;;
45049;SDS011;61798;48.048;-1.928;2023-04-08T10:28:39;19.90;;;11.07;;
45049;SDS011;61798;48.048;-1.928;2023-04-08T10:30:52;16.63;;;11.70;;
45049;SDS011;61798;48.048;-1.928;2023-04-08T10:33:03;18.73;;;12.23;;
45049;SDS011;61798;48.048;-1.928;2023-04-08T10:35:36;19.25;;;12.60;;
45049;SDS011;61798;48.048;-1.928;2023-04-08T10:37:51;18.52;;;11.90;;
45049;SDS011;61798;48.048;-1.928;2023-04-08T10:39:59;17.80;;;11.32;;
45049;SDS011;61798;48.048;-1.928;2023-04-08T10:42:07;19.52;;;12.25;;
45049;SDS011;61798;48.048;-1.928;2023-04-08T10:44:23;15.82;;;10.30;;
45049;SDS011;61798;48.048;-1.928;2023-04-08T10:46:41;19.65;;;11.50;;
45049;SDS011;61798;48.048;-1.928;2023-04-08T10:48:58;23.70;;;11.90;;
45049;SDS011;61798;48.048;-1.928;2023-04-08T10:51:07;18.25;;;10.55;;
45049;SDS011;61798;48.048;-1.928;2023-04-08T10:53:13;21.02;;;11.70;;
45049;SDS011;61798;48.048;-1.928;2023-04-08T10:55:24;15.35;;;8.65;;
45049;SDS011;61798;48.048;-1.928;2023-04-08T10:57:32;16.75;;;10.63;;
45049;SDS011;61798;48.048;-1.928;2023-04-08T10:59:39;16.45;;;9.50;;
45049;SDS011;61798;48.048;-1.928;2023-04-08T11:01:47;17.30;;;9.93;;
45049;SDS011;61798;48.048;-1.928;2023-04-08T11:03:54;11.50;;;8.45;;
45049;SDS011;61798;48.048;-1.928;2023-04-08T11:06:02;13.57;;;6.65;;
45049;SDS011;61798;48.048;-1.928;2023-04-08T11:08:09;11.27;;;6.45;;
45049;SDS011;61798;48.048;-1.928;2023-04-08T11:10:15;13.55;;;6.75;;
45049;SDS011;61798;48.048;-1.928;2023-04-08T11:12:23;10.10;;;6.22;;
45049;SDS011;61798;48.048;-1.928;2023-04-08T11:14:31;13.02;;;5.75;;
45049;SDS011;61798;48.048;-1.928;2023-04-08T11:16:39;7.50;;;4.07;;
45049;SDS011;61798;48.048;-1.928;2023-04-08T11:18:46;9.68;;;6.28;;
45049;SDS011;61798;48.048;-1.928;2023-04-08T11:20:55;12.05;;;6.00;;
45049;SDS011;61798;48.048;-1.928;2023-04-08T11:23:04;11.55;;;7.05;;
45049;SDS011;61798;48.048;-1.928;2023-04-08T11:25:17;10.57;;;5.63;;
45049;SDS011;61798;48.048;-1.928;2023-04-08T11:27:24;21.33;;;11.02;;
45049;SDS011;61798;48.048;-1.928;2023-04-08T11:29:32;13.75;;;9.07;;
45049;SDS011;61798;48.048;-1.928;2023-04-08T11:31:40;15.98;;;7.82;;
45049;SDS011;61798;48.048;-1.928;2023-04-08T11:33:51;12.18;;;6.15;;
45049;SDS011;61798;48.048;-1.928;2023-04-08T11:36:01;13.48;;;7.72;;
45049;SDS011;61798;48.048;-1.928;2023-04-08T11:38:11;17.45;;;9.93;;
45049;SDS011;61798;48.048;-1.928;2023-04-08T11:40:22;12.13;;;6.50;;
45049;SDS011;61798;48.048;-1.928;2023-04-08T11:42:30;8.52;;;6.22;;
45049;SDS011;61798;48.048;-1.928;2023-04-08T11:44:38;8.52;;;5.55;;
45049;SDS011;61798;48.048;-1.928;2023-04-08T11:46:51;6.72;;;5.45;;
45049;SDS011;61798;48.048;-1.928;2023-04-08T11:49:04;8.95;;;4.80;;
45049;SDS011;61798;48.048;-1.928;2023-04-08T11:51:13;8.23;;;4.67;;
45049;SDS011;61798;48.048;-1.928;2023-04-08T11:53:23;8.02;;;4.55;;
45049;SDS011;61798;48.048;-1.928;2023-04-08T11:55:31;11.07;;;5.05;;
45049;SDS011;61798;48.048;-1.928;2023-04-08T11:57:39;9.80;;;4.90;;
45049;SDS011;61798;48.048;-1.928;2023-04-08T11:59:47;6.22;;;4.35;;
45049;SDS011;61798;48.048;-1.928;2023-04-08T12:01:54;8.52;;;4.40;;
45049;SDS011;61798;48.048;-1.928;2023-04-08T12:04:01;6.10;;;4.10;;
45049;SDS011;61798;48.048;-1.928;2023-04-08T12:06:09;8.25;;;4.70;;
45049;SDS011;61798;48.048;-1.928;2023-04-08T12:08:16;6.40;;;4.40;;
45049;SDS011;61798;48.048;-1.928;2023-04-08T12:10:24;7.40;;;4.47;;
45049;SDS011;61798;48.048;-1.928;2023-04-08T12:12:31;6.97;;;4.00;;
45049;SDS011;61798;48.048;-1.928;2023-04-08T12:14:38;7.40;;;4.90;;
45049;SDS011;61798;48.048;-1.928;2023-04-08T12:16:46;11.52;;;5.47;;
45049;SDS011;61798;48.048;-1.928;2023-04-08T12:18:54;6.82;;;3.92;;
45049;SDS011;61798;48.048;-1.928;2023-04-08T12:21:01;7.82;;;3.67;;
45049;SDS011;61798;48.048;-1.928;2023-04-08T12:23:08;5.78;;;3.90;;
45049;SDS011;61798;48.048;-1.928;2023-04-08T12:25:15;6.47;;;4.10;;
45049;SDS011;61798;48.048;-1.928;2023-04-08T12:27:22;8.20;;;3.95;;
45049;SDS011;61798;48.048;-1.928;2023-04-08T12:29:30;5.32;;;3.78;;
45049;SDS011;61798;48.048;-1.928;2023-04-08T12:31:37;7.88;;;3.50;;
45049;SDS011;61798;48.048;-1.928;2023-04-08T12:33:45;5.75;;;3.33;;
45049;SDS011;61798;48.048;-1.928;2023-04-08T12:35:52;7.32;;;3.97;;
45049;SDS011;61798;48.048;-1.928;2023-04-08T12:38:00;5.68;;;3.40;;